createdAt,value
2022-09-09T00:00:17.812Z,100737.24
2022-09-09T00:01:36.270Z,100734.95
2022-09-09T00:02:40.276Z,100743.12
2022-09-09T00:03:52.975Z,100744.28
2022-09-09T00:04:58.150Z,100737.06
2022-09-09T00:06:10.536Z,100750.55
2022-09-09T00:07:28.045Z,100737.34
2022-09-09T00:08:41.717Z,100739.73
2022-09-09T00:09:51.546Z,100738.02
2022-09-09T00:10:57.245Z,100738.56
2022-09-09T00:12:03.894Z,100740.19
2022-09-09T00:13:25.980Z,100737.25
2022-09-09T00:14:38.673Z,100730.69
2022-09-09T00:15:46.613Z,100734.20
2022-09-09T00:16:52.980Z,100729.46
2022-09-09T00:18:07.054Z,100724.33
2022-09-09T00:19:13.690Z,100729.64
2022-09-09T00:20:25.237Z,100724.72
2022-09-09T00:21:31.505Z,100725.19
2022-09-09T00:22:38.889Z,100730.77
2022-09-09T00:23:44.224Z,100730.22
2022-09-09T00:24:51.577Z,100731.35
2022-09-09T00:26:05.782Z,100730.04
2022-09-09T00:27:10.920Z,100732.02
2022-09-09T00:28:21.943Z,100731.80
2022-09-09T00:29:28.412Z,100730.58
2022-09-09T00:30:36.720Z,100727.45
2022-09-09T00:31:39.978Z,100725.25
2022-09-09T00:32:44.319Z,100724.98
2022-09-09T00:33:50.151Z,100726.98
2022-09-09T00:34:58.650Z,100728.78
2022-09-09T00:36:02.991Z,100729.64
2022-09-09T00:37:08.157Z,100731.26
2022-09-09T00:38:17.140Z,100732.78
2022-09-09T00:39:26.864Z,100729.81
2022-09-09T00:40:43.074Z,100741.98
2022-09-09T00:42:01.920Z,100737.03
2022-09-09T00:43:07.784Z,100736.48
2022-09-09T00:44:20.369Z,100737.42
2022-09-09T00:45:40.907Z,100740.17
2022-09-09T00:46:49.217Z,100741.70
2022-09-09T00:47:53.351Z,100735.35
2022-09-09T00:49:01.546Z,100742.47
2022-09-09T00:50:23.963Z,100744.15
2022-09-09T00:51:28.155Z,100749.18
2022-09-09T00:52:50.296Z,100742.83
2022-09-09T00:54:09.989Z,100744.55
2022-09-09T00:55:14.228Z,100750.91
2022-09-09T00:56:22.328Z,100754.69
2022-09-09T00:57:34.717Z,100747.02
2022-09-09T00:58:38.215Z,100760.84
2022-09-09T00:59:49.440Z,100755.42
2022-09-09T01:00:55.044Z,100753.97
2022-09-09T01:01:59.542Z,100743.84
2022-09-09T01:03:27.140Z,100752.94
2022-09-09T01:04:31.768Z,100747.53
2022-09-09T01:05:40.919Z,100746.68
2022-09-09T01:06:46.512Z,100750.92
2022-09-09T01:07:53.028Z,100760.39
2022-09-09T01:09:16.181Z,100761.51
2022-09-09T01:10:26.517Z,100754.88
2022-09-09T01:11:37.185Z,100761.05
2022-09-09T01:12:44.042Z,100767.12
2022-09-09T01:13:53.604Z,100771.23
2022-09-09T01:15:10.689Z,100771.58
2022-09-09T01:16:17.878Z,100761.81
2022-09-09T01:17:23.129Z,100767.22
2022-09-09T01:18:30.290Z,100763.82
2022-09-09T01:19:41.358Z,100763.82
2022-09-09T01:21:03.934Z,100756.11
2022-09-09T01:22:12.100Z,100761.25
2022-09-09T01:23:32.346Z,100766.65
2022-09-09T01:24:49.220Z,100766.14
2022-09-09T01:26:13.931Z,100768.45
2022-09-09T01:27:19.219Z,100767.22
2022-09-09T01:28:23.444Z,100768.45
2022-09-09T01:29:31.691Z,100768.45
2022-09-09T01:30:39.482Z,100773.77
2022-09-09T01:31:57.992Z,100773.16
2022-09-09T01:33:02.440Z,100767.25
2022-09-09T01:34:13.080Z,100772.08
2022-09-09T01:35:19.057Z,100767.80
2022-09-09T01:36:26.416Z,100774.27
2022-09-09T01:37:28.878Z,100768.23
2022-09-09T01:38:34.325Z,100771.91
2022-09-09T01:39:40.473Z,100768.48
2022-09-09T01:40:46.089Z,100767.54
2022-09-09T01:41:49.904Z,100768.11
2022-09-09T01:42:56.440Z,100760.06
2022-09-09T01:44:02.974Z,100767.59
2022-09-09T01:45:08.666Z,100764.25
2022-09-09T01:46:14.075Z,100757.91
2022-09-09T01:47:19.471Z,100759.88
2022-09-09T01:48:33.856Z,100761.77
2022-09-09T01:49:41.586Z,100757.41
2022-09-09T01:50:46.877Z,100760.66
2022-09-09T01:51:52.460Z,100755.52
2022-09-09T01:53:01.470Z,100754.66
2022-09-09T01:54:08.259Z,100751.06
2022-09-09T01:55:11.890Z,100746.69
2022-09-09T01:56:37.187Z,100752.60
2022-09-09T01:57:56.474Z,100747.64
2022-09-09T01:59:04.704Z,100753.13
2022-09-09T02:00:13.618Z,100748.58
2022-09-09T02:01:24.262Z,100757.48
2022-09-09T02:02:30.934Z,100754.75
2022-09-09T02:03:37.915Z,100757.31
2022-09-09T02:04:49.981Z,100756.11
2022-09-09T02:06:00.375Z,100752.01
2022-09-09T02:07:07.421Z,100757.23
2022-09-09T02:08:13.877Z,100746.13
2022-09-09T02:09:25.514Z,100747.25
2022-09-09T02:10:37.229Z,100742.79
2022-09-09T02:11:45.795Z,100746.39
2022-09-09T02:12:54.206Z,100735.17
2022-09-09T02:14:14.314Z,100745.53
2022-09-09T02:15:21.802Z,100738.00
2022-09-09T02:16:28.231Z,100744.77
2022-09-09T02:17:33.811Z,100742.83
2022-09-09T02:18:58.728Z,100744.76
2022-09-09T02:20:10.624Z,100748.69
2022-09-09T02:21:16.955Z,100752.48
2022-09-09T02:22:23.135Z,100752.89
2022-09-09T02:23:27.318Z,100759.44
2022-09-09T02:24:35.882Z,100749.93
2022-09-09T02:25:43.793Z,100754.78
2022-09-09T02:26:55.016Z,100752.58
2022-09-09T02:28:00.622Z,100754.12
2022-09-09T02:29:05.379Z,100753.84
2022-09-09T02:30:09.512Z,100753.84
2022-09-09T02:31:19.271Z,100755.16
2022-09-09T02:32:24.447Z,100751.56
2022-09-09T02:33:29.728Z,100751.01
2022-09-09T02:34:36.258Z,100759.74
2022-09-09T02:35:42.258Z,100748.61
2022-09-09T02:36:47.868Z,100753.83
2022-09-09T02:37:58.093Z,100743.13
2022-09-09T02:39:02.933Z,100751.01
2022-09-09T02:40:10.056Z,100753.06
2022-09-09T02:41:19.956Z,100751.17
2022-09-09T02:42:22.836Z,100751.27
2022-09-09T02:43:27.186Z,100755.23
2022-09-09T02:44:29.949Z,100756.48
2022-09-09T02:45:38.121Z,100760.16
2022-09-09T02:46:52.107Z,100755.83
2022-09-09T02:48:02.920Z,100756.48
2022-09-09T02:49:08.212Z,100756.00
2022-09-09T02:50:18.087Z,100758.98
2022-09-09T02:51:27.422Z,100756.16
2022-09-09T02:52:33.037Z,100755.47
2022-09-09T02:53:43.122Z,100759.52
2022-09-09T02:54:46.731Z,100755.84
2022-09-09T02:55:51.489Z,100758.38
2022-09-09T02:56:59.066Z,100755.84
2022-09-09T02:58:06.645Z,100757.36
2022-09-09T02:59:11.717Z,100757.36
2022-09-09T03:00:16.582Z,100752.50
2022-09-09T03:01:22.230Z,100752.05
2022-09-09T03:02:27.121Z,100752.91
2022-09-09T03:03:33.037Z,100753.27
2022-09-09T03:04:40.210Z,100755.84
2022-09-09T03:05:44.201Z,100753.27
2022-09-09T03:06:48.460Z,100752.91
2022-09-09T03:07:54.842Z,100757.72
2022-09-09T03:09:01.157Z,100749.68
2022-09-09T03:10:06.909Z,100746.25
2022-09-09T03:11:11.151Z,100743.52
2022-09-09T03:12:13.621Z,100754.38
2022-09-09T03:13:19.600Z,100751.80
2022-09-09T03:14:26.387Z,100752.58
2022-09-09T03:15:32.076Z,100748.83
2022-09-09T03:16:35.455Z,100750.42
2022-09-09T03:17:38.969Z,100754.05
2022-09-09T03:18:42.787Z,100761.89
2022-09-09T03:19:47.348Z,100760.87
2022-09-09T03:20:50.852Z,100753.19
2022-09-09T03:21:56.968Z,100754.12
2022-09-09T03:23:01.731Z,100758.38
2022-09-09T03:24:04.292Z,100761.31
2022-09-09T03:25:08.622Z,100759.68
2022-09-09T03:26:15.746Z,100764.66
2022-09-09T03:27:21.282Z,100762.00
2022-09-09T03:28:26.354Z,100762.41
2022-09-09T03:29:32.157Z,100759.35
2022-09-09T03:30:36.289Z,100763.71
2022-09-09T03:31:41.620Z,100763.80
2022-09-09T03:32:48.763Z,100765.06
2022-09-09T03:33:50.459Z,100766.09
2022-09-09T03:34:54.215Z,100772.86
2022-09-09T03:35:59.674Z,100769.35
2022-09-09T03:37:03.396Z,100775.27
2022-09-09T03:38:05.836Z,100769.44
2022-09-09T03:39:09.759Z,100767.89
2022-09-09T03:40:14.257Z,100774.05
2022-09-09T03:41:20.216Z,100768.75
2022-09-09T03:42:25.187Z,100771.23
2022-09-09T03:43:30.731Z,100770.54
2022-09-09T03:44:34.689Z,100773.27
2022-09-09T03:45:38.031Z,100780.30
2022-09-09T03:46:44.483Z,100776.02
2022-09-09T03:47:47.655Z,100777.39
2022-09-09T03:48:53.525Z,100774.50
2022-09-09T03:49:59.755Z,100779.97
2022-09-09T03:51:04.214Z,100781.52
2022-09-09T03:52:10.400Z,100781.16
2022-09-09T03:53:13.602Z,100779.72
2022-09-09T03:54:17.004Z,100785.88
2022-09-09T03:55:22.542Z,100787.48
2022-09-09T03:56:26.312Z,100791.44
2022-09-09T03:57:32.577Z,100790.91
2022-09-09T03:58:36.450Z,100785.44
2022-09-09T03:59:41.619Z,100783.02
2022-09-09T04:00:45.469Z,100783.63
2022-09-09T04:01:48.871Z,100790.05
2022-09-09T04:02:55.882Z,100786.29
2022-09-09T04:03:59.934Z,100787.48
2022-09-09T04:05:05.420Z,100788.86
2022-09-09T04:06:11.014Z,100791.61
2022-09-09T04:07:13.893Z,100784.33
2022-09-09T04:08:17.712Z,100782.70
2022-09-09T04:09:22.461Z,100787.09
2022-09-09T04:10:26.520Z,100792.01
2022-09-09T04:11:31.400Z,100776.20
2022-09-09T04:12:37.827Z,100780.54
2022-09-09T04:13:42.233Z,100786.29
2022-09-09T04:14:46.984Z,100778.08
2022-09-09T04:16:04.884Z,100780.73
2022-09-09T04:17:08.416Z,100784.74
2022-09-09T04:18:12.120Z,100774.41
2022-09-09T04:19:14.892Z,100773.72
2022-09-09T04:20:19.662Z,100772.01
2022-09-09T04:21:23.379Z,100773.64
2022-09-09T04:22:27.404Z,100767.72
2022-09-09T04:23:32.892Z,100771.14
2022-09-09T04:24:36.189Z,100778.41
2022-09-09T04:25:42.328Z,100775.59
2022-09-09T04:26:45.905Z,100772.62
2022-09-09T04:27:54.485Z,100784.05
2022-09-09T04:28:58.708Z,100782.45
2022-09-09T04:30:01.639Z,100793.15
2022-09-09T04:31:10.779Z,100802.05
2022-09-09T04:32:16.703Z,100803.23
2022-09-09T04:33:21.360Z,100806.91
2022-09-09T04:34:25.593Z,100804.78
2022-09-09T04:35:31.710Z,100803.70
2022-09-09T04:36:36.885Z,100805.98
2022-09-09T04:37:42.577Z,100802.84
2022-09-09T04:38:46.325Z,100808.39
2022-09-09T04:39:51.084Z,100800.57
2022-09-09T04:40:57.945Z,100803.94
2022-09-09T04:42:02.139Z,100802.14
2022-09-09T04:43:06.368Z,100804.25
2022-09-09T04:44:09.880Z,100811.13
2022-09-09T04:45:14.438Z,100811.13
2022-09-09T04:46:20.964Z,100808.48
2022-09-09T04:47:29.400Z,100817.98
2022-09-09T04:48:33.273Z,100825.09
2022-09-09T04:49:38.059Z,100820.20
2022-09-09T04:50:42.610Z,100822.86
2022-09-09T04:51:49.854Z,100822.61
2022-09-09T04:52:53.902Z,100817.88
2022-09-09T04:53:57.192Z,100824.95
2022-09-09T04:55:00.038Z,100823.03
2022-09-09T04:56:10.770Z,100822.60
2022-09-09T04:57:18.750Z,100827.95
2022-09-09T04:58:23.007Z,100831.20
2022-09-09T04:59:26.101Z,100827.52
2022-09-09T05:00:34.390Z,100821.78
2022-09-09T05:01:37.391Z,100820.50
2022-09-09T05:02:44.734Z,100820.78
2022-09-09T05:03:48.773Z,100819.86
2022-09-09T05:04:54.076Z,100813.02
2022-09-09T05:05:58.197Z,100819.19
2022-09-09T05:07:02.024Z,100821.58
2022-09-09T05:08:06.471Z,100819.86
2022-09-09T05:09:11.742Z,100828.88
2022-09-09T05:10:17.648Z,100822.89
2022-09-09T05:11:23.564Z,100835.14
2022-09-09T05:12:26.233Z,100838.39
2022-09-09T05:13:29.395Z,100835.64
2022-09-09T05:14:32.930Z,100837.63
2022-09-09T05:15:36.750Z,100833.19
2022-09-09T05:16:41.225Z,100832.53
2022-09-09T05:17:46.255Z,100822.87
2022-09-09T05:18:49.990Z,100826.59
2022-09-09T05:19:53.797Z,100827.71
2022-09-09T05:21:02.874Z,100823.77
2022-09-09T05:22:07.493Z,100827.29
2022-09-09T05:23:15.802Z,100815.18
2022-09-09T05:24:19.521Z,100828.36
2022-09-09T05:25:23.952Z,100820.73
2022-09-09T05:26:27.256Z,100814.45
2022-09-09T05:27:32.748Z,100818.05
2022-09-09T05:28:37.507Z,100806.53
2022-09-09T05:29:42.366Z,100806.33
2022-09-09T05:30:48.373Z,100810.75
2022-09-09T05:31:51.803Z,100806.02
2022-09-09T05:32:59.660Z,100800.16
2022-09-09T05:34:02.931Z,100809.30
2022-09-09T05:35:06.881Z,100810.60
2022-09-09T05:36:14.473Z,100812.23
2022-09-09T05:37:18.495Z,100809.13
2022-09-09T05:38:24.761Z,100809.83
2022-09-09T05:39:27.375Z,100804.33
2022-09-09T05:40:32.876Z,100801.27
2022-09-09T05:41:38.782Z,100802.12
2022-09-09T05:42:42.951Z,100799.87
2022-09-09T05:43:48.299Z,100806.60
2022-09-09T05:44:56.789Z,100803.45
2022-09-09T05:46:07.843Z,100805.56
2022-09-09T05:47:11.445Z,100815.61
2022-09-09T05:48:16.531Z,100804.17
2022-09-09T05:49:20.331Z,100810.90
2022-09-09T05:50:25.980Z,100803.77
2022-09-09T05:51:31.524Z,100807.06
2022-09-09T05:52:36.607Z,100813.25
2022-09-09T05:53:42.079Z,100810.90
2022-09-09T05:54:47.351Z,100805.80
2022-09-09T05:55:52.954Z,100813.98
2022-09-09T05:56:57.724Z,100808.09
2022-09-09T05:58:00.497Z,100821.91
2022-09-09T05:59:03.792Z,100820.50
2022-09-09T06:00:11.178Z,100821.77
2022-09-09T06:01:18.218Z,100827.44
2022-09-09T06:02:22.420Z,100828.22
2022-09-09T06:03:29.892Z,100825.12
2022-09-09T06:04:34.893Z,100818.44
2022-09-09T06:05:40.034Z,100825.38
2022-09-09T06:06:43.462Z,100822.75
2022-09-09T06:07:49.694Z,100823.16
2022-09-09T06:08:54.544Z,100823.85
2022-09-09T06:09:58.584Z,100822.12
2022-09-09T06:11:06.463Z,100822.33
2022-09-09T06:12:10.700Z,100830.27
2022-09-09T06:13:17.583Z,100827.78
2022-09-09T06:14:22.310Z,100830.69
2022-09-09T06:15:29.266Z,100829.61
2022-09-09T06:16:36.251Z,100834.11
2022-09-09T06:17:40.445Z,100837.91
2022-09-09T06:18:44.472Z,100831.45
2022-09-09T06:19:48.291Z,100840.70
2022-09-09T06:21:00.846Z,100842.77
2022-09-09T06:22:04.094Z,100843.11
2022-09-09T06:23:08.112Z,100846.64
2022-09-09T06:24:12.558Z,100837.88
2022-09-09T06:25:16.066Z,100841.16
2022-09-09T06:26:21.437Z,100826.48
2022-09-09T06:27:25.474Z,100823.95
2022-09-09T06:28:28.558Z,100827.01
2022-09-09T06:29:32.067Z,100819.33
2022-09-09T06:30:36.094Z,100817.47
2022-09-09T06:31:40.888Z,100823.53
2022-09-09T06:32:46.434Z,100821.74
2022-09-09T06:33:51.297Z,100832.91
2022-09-09T06:34:55.847Z,100839.28
2022-09-09T06:35:58.999Z,100842.44
2022-09-09T06:37:01.819Z,100838.95
2022-09-09T06:38:09.081Z,100843.53
2022-09-09T06:39:15.006Z,100844.91
2022-09-09T06:40:20.117Z,100843.01
2022-09-09T06:41:24.725Z,100847.05
2022-09-09T06:42:27.808Z,100851.16
2022-09-09T06:43:49.894Z,100845.38
2022-09-09T06:44:55.603Z,100864.62
2022-09-09T06:46:03.243Z,100868.47
2022-09-09T06:47:07.050Z,100883.45
2022-09-09T06:48:10.714Z,100893.95
2022-09-09T06:49:15.078Z,100901.52
2022-09-09T06:50:20.499Z,100903.23
2022-09-09T06:51:24.919Z,100911.84
2022-09-09T06:52:29.047Z,100914.20
2022-09-09T06:53:34.807Z,100908.26
2022-09-09T06:54:40.409Z,100916.72
2022-09-09T06:55:46.219Z,100917.47
2022-09-09T06:56:53.777Z,100913.34
2022-09-09T06:58:01.728Z,100917.73
2022-09-09T06:59:06.868Z,100920.74
2022-09-09T07:00:16.079Z,100930.47
2022-09-09T07:01:24.109Z,100936.58
2022-09-09T07:02:27.738Z,100938.59
2022-09-09T07:03:30.511Z,100941.22
2022-09-09T07:04:34.205Z,100933.97
2022-09-09T07:05:36.873Z,100932.80
2022-09-09T07:06:45.781Z,100941.97
2022-09-09T07:07:52.332Z,100951.99
2022-09-09T07:09:00.234Z,100950.38
2022-09-09T07:10:08.284Z,100949.42
2022-09-09T07:11:12.886Z,100953.69
2022-09-09T07:12:18.158Z,100960.39
2022-09-09T07:13:27.103Z,100956.42
2022-09-09T07:14:31.130Z,100959.09
2022-09-09T07:15:40.167Z,100968.78
2022-09-09T07:16:44.301Z,100964.14
2022-09-09T07:17:47.378Z,100951.87
2022-09-09T07:18:55.167Z,100952.39
2022-09-09T07:19:58.682Z,100954.86
2022-09-09T07:21:03.866Z,100963.08
2022-09-09T07:22:09.285Z,100956.19
2022-09-09T07:23:13.375Z,100964.34
2022-09-09T07:24:17.019Z,100968.48
2022-09-09T07:25:21.522Z,100967.94
2022-09-09T07:26:26.698Z,100969.07
2022-09-09T07:27:29.576Z,100969.88
2022-09-09T07:28:33.356Z,100971.75
2022-09-09T07:29:37.048Z,100962.28
2022-09-09T07:30:41.353Z,100967.37
2022-09-09T07:31:44.673Z,100964.66
2022-09-09T07:32:53.353Z,100961.91
2022-09-09T07:33:56.842Z,100957.89
2022-09-09T07:35:00.062Z,100963.96
2022-09-09T07:36:07.537Z,100960.38
2022-09-09T07:37:13.977Z,100956.27
2022-09-09T07:38:20.415Z,100957.38
2022-09-09T07:39:24.017Z,100970.09
2022-09-09T07:40:28.764Z,100969.32
2022-09-09T07:41:36.248Z,100960.08
2022-09-09T07:42:38.594Z,100960.20
2022-09-09T07:43:45.390Z,100957.36
2022-09-09T07:44:52.088Z,100963.80
2022-09-09T07:46:04.298Z,100972.36
2022-09-09T07:47:07.771Z,100976.28
2022-09-09T07:48:13.468Z,100965.49
2022-09-09T07:49:17.077Z,100973.89
2022-09-09T07:50:19.706Z,100973.41
2022-09-09T07:51:26.178Z,100967.84
2022-09-09T07:52:32.815Z,100966.38
2022-09-09T07:53:38.306Z,100965.04
2022-09-09T07:54:42.182Z,100967.91
2022-09-09T07:55:46.835Z,100963.61
2022-09-09T07:56:52.370Z,100966.31
2022-09-09T07:57:57.259Z,100964.69
2022-09-09T07:59:03.551Z,100952.05
2022-09-09T08:00:09.176Z,100958.97
2022-09-09T08:01:21.799Z,100964.55
2022-09-09T08:02:26.084Z,100956.20
2022-09-09T08:03:29.422Z,100953.34
2022-09-09T08:04:33.720Z,100943.72
2022-09-09T08:05:36.520Z,100953.94
2022-09-09T08:06:41.462Z,100943.58
2022-09-09T08:07:48.499Z,100938.59
2022-09-09T08:08:52.881Z,100948.56
2022-09-09T08:09:56.144Z,100934.66
2022-09-09T08:11:09.478Z,100938.23
2022-09-09T08:12:14.538Z,100941.94
2022-09-09T08:13:19.819Z,100932.67
2022-09-09T08:14:24.774Z,100932.05
2022-09-09T08:15:28.198Z,100936.60
2022-09-09T08:16:35.847Z,100936.22
2022-09-09T08:17:39.479Z,100943.52
2022-09-09T08:18:43.412Z,100939.84
2022-09-09T08:19:47.101Z,100941.27
2022-09-09T08:20:52.189Z,100943.60
2022-09-09T08:21:55.702Z,100937.02
2022-09-09T08:23:00.649Z,100936.56
2022-09-09T08:24:04.419Z,100938.16
2022-09-09T08:25:09.038Z,100939.09
2022-09-09T08:26:15.173Z,100934.08
2022-09-09T08:27:18.542Z,100937.52
2022-09-09T08:28:21.641Z,100924.23
2022-09-09T08:29:24.821Z,100928.95
2022-09-09T08:30:30.103Z,100925.73
2022-09-09T08:31:37.275Z,100927.57
2022-09-09T08:32:45.557Z,100923.45
2022-09-09T08:33:47.928Z,100919.89
2022-09-09T08:34:54.583Z,100912.60
2022-09-09T08:35:59.057Z,100923.57
2022-09-09T08:37:05.453Z,100915.00
2022-09-09T08:38:11.211Z,100921.42
2022-09-09T08:39:18.406Z,100910.16
2022-09-09T08:40:25.159Z,100916.58
2022-09-09T08:41:37.853Z,100916.88
2022-09-09T08:42:48.448Z,100918.87
2022-09-09T08:43:53.214Z,100908.66
2022-09-09T08:45:04.265Z,100926.23
2022-09-09T08:46:12.789Z,100915.54
2022-09-09T08:47:35.070Z,100915.48
2022-09-09T08:48:54.862Z,100921.05
2022-09-09T08:50:04.317Z,100915.36
2022-09-09T08:51:08.748Z,100912.04
2022-09-09T08:52:20.073Z,100910.33
2022-09-09T08:53:31.419Z,100907.66
2022-09-09T08:54:51.521Z,100912.22
2022-09-09T08:55:56.916Z,100912.16
2022-09-09T08:57:02.216Z,100908.48
2022-09-09T08:58:15.759Z,100906.08
2022-09-09T08:59:20.819Z,100910.34
2022-09-09T09:00:26.727Z,100905.80
2022-09-09T09:01:31.534Z,100900.08
2022-09-09T09:02:42.835Z,100898.81
2022-09-09T09:03:49.142Z,100901.67
2022-09-09T09:05:12.603Z,100899.80
2022-09-09T09:06:44.106Z,100904.73
2022-09-09T09:07:58.583Z,100889.58
2022-09-09T09:09:04.902Z,100897.38
2022-09-09T09:10:37.714Z,100896.77
2022-09-09T09:11:19.323Z,100901.50
2022-09-09T09:12:25.659Z,100888.05
2022-09-09T09:13:45.969Z,100894.72
2022-09-09T09:14:52.046Z,100895.27
2022-09-09T09:15:59.267Z,100894.47
2022-09-09T09:17:06.955Z,100896.44
2022-09-09T09:18:13.587Z,100896.14
2022-09-09T09:19:18.649Z,100897.64
2022-09-09T09:20:26.472Z,100899.76
2022-09-09T09:21:37.973Z,100900.21
2022-09-09T09:22:44.034Z,100898.17
2022-09-09T09:23:54.385Z,100905.28
2022-09-09T09:25:08.013Z,100905.47
2022-09-09T09:26:13.719Z,100904.90
2022-09-09T09:27:18.174Z,100891.09
2022-09-09T09:28:26.263Z,100887.53
2022-09-09T09:29:31.659Z,100881.31
2022-09-09T09:30:41.099Z,100884.93
2022-09-09T09:31:47.550Z,100891.33
2022-09-09T09:32:54.500Z,100879.66
2022-09-09T09:34:00.708Z,100877.39
2022-09-09T09:35:14.371Z,100874.06
2022-09-09T09:36:18.728Z,100870.17
2022-09-09T09:37:36.599Z,100874.41
2022-09-09T09:40:05.084Z,100877.42
2022-09-09T09:40:59.280Z,100887.45
2022-09-09T09:42:13.891Z,100887.48
2022-09-09T09:43:19.825Z,100888.46
2022-09-09T09:44:24.071Z,100888.25
2022-09-09T09:45:30.709Z,100889.29
2022-09-09T09:46:34.548Z,100887.61
2022-09-09T09:47:40.736Z,100889.83
2022-09-09T09:48:48.951Z,100894.21
2022-09-09T09:49:54.547Z,100896.55
2022-09-09T09:51:00.665Z,100896.75
2022-09-09T09:52:07.256Z,100903.73
2022-09-09T09:53:21.770Z,100897.80
2022-09-09T09:54:34.366Z,100890.62
2022-09-09T09:55:42.675Z,100891.92
2022-09-09T09:56:47.750Z,100903.88
2022-09-09T09:57:50.367Z,100895.06
2022-09-09T09:58:54.628Z,100897.59
2022-09-09T10:00:10.369Z,100888.81
2022-09-09T10:01:24.585Z,100898.47
2022-09-09T10:02:33.903Z,100890.50
2022-09-09T10:03:41.285Z,100891.52
2022-09-09T10:04:46.299Z,100888.46
2022-09-09T10:05:49.983Z,100887.59
2022-09-09T10:06:55.210Z,100886.77
2022-09-09T10:08:04.090Z,100884.91
2022-09-09T10:09:27.118Z,100888.98
2022-09-09T10:10:35.631Z,100890.32
2022-09-09T10:11:44.443Z,100891.83
2022-09-09T10:12:51.495Z,100891.86
2022-09-09T10:13:57.298Z,100889.26
2022-09-09T10:15:02.360Z,100888.28
2022-09-09T10:16:11.216Z,100886.08
2022-09-09T10:17:27.545Z,100882.89
2022-09-09T10:18:42.131Z,100887.95
2022-09-09T10:19:49.083Z,100898.28
2022-09-09T10:21:10.646Z,100894.47
2022-09-09T10:22:20.535Z,100899.84
2022-09-09T10:23:35.419Z,100900.19
2022-09-09T10:24:41.679Z,100901.20
2022-09-09T10:25:58.936Z,100904.72
2022-09-09T10:27:16.123Z,100895.70
2022-09-09T10:28:31.943Z,100897.44
2022-09-09T10:29:39.521Z,100904.38
2022-09-09T10:30:45.369Z,100902.70
2022-09-09T10:31:53.054Z,100901.84
2022-09-09T10:33:06.268Z,100892.86
2022-09-09T10:34:17.994Z,100902.18
2022-09-09T10:35:30.167Z,100895.25
2022-09-09T10:36:34.498Z,100886.08
2022-09-09T10:37:46.658Z,100879.34
2022-09-09T10:40:06.688Z,100893.16
2022-09-09T10:41:31.195Z,100888.20
2022-09-09T10:42:36.099Z,100887.94
2022-09-09T10:44:00.319Z,100885.94
2022-09-09T10:45:07.458Z,100887.84
2022-09-09T10:46:15.705Z,100881.75
2022-09-09T10:47:27.829Z,100883.49
2022-09-09T10:48:32.965Z,100883.70
2022-09-09T10:49:53.859Z,100883.91
2022-09-09T10:51:03.790Z,100885.53
2022-09-09T10:52:19.341Z,100882.98
2022-09-09T10:53:25.251Z,100887.63
2022-09-09T10:54:40.612Z,100883.88
2022-09-09T10:55:48.971Z,100879.82
2022-09-09T10:56:57.291Z,100882.02
2022-09-09T10:58:02.884Z,100872.20
2022-09-09T10:59:11.809Z,100876.27
2022-09-09T11:00:17.612Z,100872.72
2022-09-09T11:01:22.734Z,100868.99
2022-09-09T11:02:31.526Z,100860.53
2022-09-09T11:03:36.742Z,100874.06
2022-09-09T11:04:45.153Z,100866.11
2022-09-09T11:05:51.013Z,100863.87
2022-09-09T11:06:56.131Z,100873.56
2022-09-09T11:08:01.368Z,100872.53
2022-09-09T11:09:06.522Z,100863.73
2022-09-09T11:10:12.764Z,100864.92
2022-09-09T11:11:24.452Z,100866.10
2022-09-09T11:12:29.223Z,100867.97
2022-09-09T11:13:43.138Z,100868.99
2022-09-09T11:14:56.529Z,100874.58
2022-09-09T11:16:19.320Z,100871.86
2022-09-09T11:17:29.770Z,100875.24
2022-09-09T11:18:35.941Z,100868.14
2022-09-09T11:19:44.520Z,100870.34
2022-09-09T11:20:50.537Z,100872.20
2022-09-09T11:21:55.391Z,100868.98
2022-09-09T11:23:01.714Z,100874.23
2022-09-09T11:24:06.891Z,100862.91
2022-09-09T11:25:12.164Z,100865.42
2022-09-09T11:26:21.621Z,100864.75
2022-09-09T11:27:34.304Z,100868.11
2022-09-09T11:28:41.605Z,100873.39
2022-09-09T11:29:50.877Z,100872.72
2022-09-09T11:30:58.363Z,100866.09
2022-09-09T11:32:03.424Z,100874.25
2022-09-09T11:33:09.829Z,100874.23
2022-09-09T11:34:18.841Z,100874.23
2022-09-09T11:35:26.970Z,100874.59
2022-09-09T11:36:37.150Z,100875.25
2022-09-09T11:37:47.349Z,100869.67
2022-09-09T11:38:52.825Z,100863.76
2022-09-09T11:40:00.157Z,100866.27
2022-09-09T11:41:08.713Z,100872.35
2022-09-09T11:42:18.009Z,100870.07
2022-09-09T11:43:23.672Z,100872.94
2022-09-09T12:10:08.729Z,100859.28
2022-09-09T12:11:13.486Z,100860.26
2022-09-09T12:12:19.717Z,100849.91
2022-09-09T12:13:24.830Z,100850.59
2022-09-09T12:14:39.999Z,100845.84
2022-09-09T12:15:51.140Z,100846.25
2022-09-09T12:16:54.136Z,100842.92
2022-09-09T12:18:03.100Z,100836.25
2022-09-09T12:19:08.008Z,100835.41
2022-09-09T12:20:19.451Z,100841.06
2022-09-09T12:21:24.419Z,100838.50
2022-09-09T12:22:29.488Z,100833.22
2022-09-09T12:23:34.828Z,100829.80
2022-09-09T12:24:43.264Z,100827.41
2022-09-09T12:25:51.391Z,100836.90
2022-09-09T12:27:00.220Z,100828.91
2022-09-09T12:28:09.785Z,100834.84
2022-09-09T12:29:24.569Z,100835.20
2022-09-09T12:30:31.469Z,100841.78
2022-09-09T12:31:37.846Z,100837.75
2022-09-09T12:32:42.485Z,100835.96
2022-09-09T12:33:48.254Z,100834.64
2022-09-09T12:34:54.628Z,100839.66
2022-09-09T12:36:01.161Z,100838.17
2022-09-09T12:37:07.696Z,100835.09
2022-09-09T12:38:13.177Z,100844.08
2022-09-09T12:39:20.973Z,100842.54
2022-09-09T12:40:24.781Z,100848.25
2022-09-09T12:41:31.784Z,100837.98
2022-09-09T12:42:41.156Z,100844.60
2022-09-09T12:43:42.409Z,100841.25
2022-09-09T12:44:46.599Z,100839.08
2022-09-09T12:45:52.314Z,100845.94
2022-09-09T12:46:57.101Z,100836.80
2022-09-09T12:48:08.220Z,100841.80
2022-09-09T12:49:22.418Z,100841.08
2022-09-09T12:50:28.435Z,100844.94
2022-09-09T12:51:31.999Z,100842.46
2022-09-09T12:52:38.159Z,100834.51
2022-09-09T12:53:41.841Z,100843.31
2022-09-09T12:54:49.906Z,100836.36
2022-09-09T12:56:00.026Z,100841.73
2022-09-09T12:57:03.537Z,100839.92
2022-09-09T12:58:08.290Z,100839.81
2022-09-09T12:59:12.725Z,100838.47
2022-09-09T13:00:16.953Z,100839.31
2022-09-09T13:01:26.109Z,100838.39
2022-09-09T13:02:29.578Z,100827.67
2022-09-09T13:03:35.131Z,100837.05
2022-09-09T13:04:38.764Z,100843.41
2022-09-09T13:05:44.105Z,100840.27
2022-09-09T13:06:47.609Z,100832.52
2022-09-09T13:07:50.998Z,100838.28
2022-09-09T13:08:55.130Z,100837.91
2022-09-09T13:09:59.467Z,100831.92
2022-09-09T13:11:05.837Z,100838.53
2022-09-09T13:12:11.950Z,100839.31
2022-09-09T13:13:19.535Z,100840.55
2022-09-09T13:14:30.735Z,100841.97